Time;durP1;ratioP1;P1;durP2;ratioP2;P2;SDS_P1;SDS_P2;PMS_P1;PMS_P2;Temp;Humidity;BMP_temperature;BMP_pressure;BME280_temperature;BME280_humidity;BME280_pressure;Samples;Min_cycle;Max_cycle;Signal;HPM_P1;HPM_P2
2024/01/13 00:01:49;;;;;;;1.30;1.20;;;19.30;50.60;;;;;;5025252;28;20033;-67
2024/01/13 00:04:15;;;;;;;1.73;1.15;;;19.30;50.60;;;;;;5023988;28;20029;-67
2024/01/13 00:06:41;;;;;;;1.63;1.15;;;19.30;50.60;;;;;;5026706;28;20033;-68
2024/01/13 00:09:06;;;;;;;1.42;1.30;;;19.30;50.60;;;;;;5023766;28;20124;-68
2024/01/13 00:11:32;;;;;;;1.10;1.00;;;19.30;50.60;;;;;;5022667;28;20032;-67
2024/01/13 00:13:58;;;;;;;2.22;1.48;;;19.30;50.60;;;;;;5025756;28;20044;-66
2024/01/13 00:16:23;;;;;;;2.10;1.30;;;19.30;50.60;;;;;;5022084;28;20116;-66
2024/01/13 00:18:50;;;;;;;1.30;1.10;;;19.30;50.50;;;;;;5023171;28;20054;-66
2024/01/13 00:21:15;;;;;;;1.40;1.20;;;19.30;50.50;;;;;;5024110;28;20029;-67
2024/01/13 00:23:41;;;;;;;1.45;1.30;;;19.30;50.50;;;;;;5014443;28;20025;-68
2024/01/13 00:26:06;;;;;;;1.05;0.95;;;19.30;50.50;;;;;;5025638;28;20025;-66
2024/01/13 00:28:32;;;;;;;2.00;1.10;;;19.30;50.60;;;;;;5025377;28;20061;-66
2024/01/13 00:30:57;;;;;;;1.20;1.02;;;19.30;50.50;;;;;;5020128;28;20475;-69
2024/01/13 00:33:23;;;;;;;1.05;0.90;;;19.30;50.50;;;;;;5024871;28;20028;-68
2024/01/13 00:35:48;;;;;;;1.25;1.10;;;19.30;50.60;;;;;;5014024;28;20025;-66
2024/01/13 00:38:14;;;;;;;2.13;1.08;;;19.30;50.50;;;;;;5022120;28;20029;-66
2024/01/13 00:40:39;;;;;;;1.33;0.90;;;19.30;50.50;;;;;;5025889;28;20030;-65
2024/01/13 00:43:05;;;;;;;1.20;1.10;;;19.30;50.50;;;;;;5021429;28;20391;-65
2024/01/13 00:45:30;;;;;;;1.10;0.80;;;19.30;50.50;;;;;;5025142;28;20030;-66
2024/01/13 00:47:56;;;;;;;1.40;1.25;;;19.30;50.50;;;;;;5025405;28;20049;-67
2024/01/13 00:50:22;;;;;;;1.45;1.05;;;19.30;50.50;;;;;;5017634;28;20484;-66
2024/01/13 00:52:47;;;;;;;1.30;0.90;;;19.30;50.50;;;;;;5025584;28;20064;-68
2024/01/13 00:55:13;;;;;;;2.80;1.40;;;19.30;50.50;;;;;;5023770;28;20060;-66
2024/01/13 00:57:38;;;;;;;1.52;1.20;;;19.30;50.50;;;;;;5019083;28;20036;-66
2024/01/13 01:00:05;;;;;;;1.73;1.20;;;19.30;50.50;;;;;;5022381;28;20041;-68
2024/01/13 01:02:30;;;;;;;1.23;0.90;;;19.30;50.50;;;;;;5023086;28;20082;-67
2024/01/13 01:04:56;;;;;;;1.23;1.02;;;19.30;50.50;;;;;;5025492;28;20026;-69
2024/01/13 01:07:21;;;;;;;1.67;1.30;;;19.30;50.60;;;;;;5024014;28;20025;-67
2024/01/13 01:09:47;;;;;;;1.67;1.00;;;19.20;50.60;;;;;;5023711;28;20140;-66
2024/01/13 01:12:12;;;;;;;1.88;1.00;;;19.20;50.70;;;;;;5022730;28;20030;-67
2024/01/13 01:14:38;;;;;;;1.58;1.30;;;19.10;50.70;;;;;;5021718;28;20045;-67
2024/01/13 01:17:03;;;;;;;0.95;0.70;;;19.10;50.90;;;;;;5024080;28;20037;-65
2024/01/13 01:19:29;;;;;;;1.27;1.00;;;19.00;50.90;;;;;;5018689;28;20108;-66
2024/01/13 01:21:55;;;;;;;1.48;1.15;;;19.00;51.30;;;;;;5023687;28;20108;-68
2024/01/13 01:24:20;;;;;;;3.28;1.10;;;18.90;51.30;;;;;;5023889;28;20100;-67
2024/01/13 01:26:46;;;;;;;1.60;1.00;;;18.90;51.50;;;;;;5024927;28;20140;-65
2024/01/13 01:29:12;;;;;;;1.90;1.00;;;18.80;51.60;;;;;;5021416;28;20032;-66
2024/01/13 01:31:37;;;;;;;1.40;0.80;;;18.70;51.60;;;;;;5024809;28;20033;-67
2024/01/13 01:34:03;;;;;;;1.80;1.30;;;18.70;51.80;;;;;;5010786;28;20033;-67
2024/01/13 01:36:28;;;;;;;1.42;1.20;;;18.60;51.90;;;;;;5024448;28;20658;-67
2024/01/13 01:38:54;;;;;;;1.20;1.10;;;18.60;52.00;;;;;;5036361;28;20048;-66
2024/01/13 01:41:20;;;;;;;1.20;1.00;;;18.50;52.10;;;;;;5021021;28;20037;-68
2024/01/13 01:43:47;;;;;;;1.38;0.98;;;18.50;52.20;;;;;;5023475;28;20556;-67
2024/01/13 01:46:14;;;;;;;0.80;0.80;;;18.50;52.10;;;;;;5024355;28;20032;-67
2024/01/13 01:48:41;;;;;;;1.38;1.08;;;18.60;52.10;;;;;;5018069;28;20144;-69
2024/01/13 01:51:07;;;;;;;0.95;0.85;;;18.60;51.90;;;;;;5028449;28;20053;-67
2024/01/13 01:53:34;;;;;;;1.02;0.93;;;18.70;51.60;;;;;;5017450;28;20038;-66
2024/01/13 01:56:03;;;;;;;0.80;0.80;;;18.70;51.40;;;;;;5022802;28;20551;-66
2024/01/13 01:58:29;;;;;;;1.15;1.05;;;18.80;51.20;;;;;;5009283;28;20037;-67
2024/01/13 02:00:55;;;;;;;1.33;0.93;;;19.00;51.00;;;;;;5026966;28;20033;-67
2024/01/13 02:03:21;;;;;;;1.05;0.95;;;19.00;50.70;;;;;;5014435;28;20055;-67
2024/01/13 02:05:46;;;;;;;1.20;0.80;;;19.20;50.60;;;;;;5028111;28;20026;-67
2024/01/13 02:08:13;;;;;;;1.35;0.90;;;19.30;50.40;;;;;;5027019;28;20033;-66
2024/01/13 02:10:38;;;;;;;1.60;1.13;;;19.40;50.20;;;;;;5022767;28;20040;-66
2024/01/13 02:13:04;;;;;;;0.75;0.60;;;19.50;50.00;;;;;;5026356;28;20029;-68
2024/01/13 02:15:29;;;;;;;1.10;0.90;;;19.60;49.90;;;;;;5017555;28;20067;-67
2024/01/13 02:17:55;;;;;;;0.88;0.68;;;19.60;49.80;;;;;;5013817;28;20524;-67
2024/01/13 02:20:20;;;;;;;1.20;0.85;;;19.70;49.60;;;;;;5024518;28;20037;-67
2024/01/13 02:22:46;;;;;;;1.38;1.27;;;19.80;49.50;;;;;;5013966;28;20104;-66
2024/01/13 02:25:11;;;;;;;1.15;1.05;;;19.80;49.40;;;;;;5025220;28;20447;-68
2024/01/13 02:27:37;;;;;;;0.55;0.50;;;20.00;49.30;;;;;;5023654;28;20105;-66
2024/01/13 02:30:02;;;;;;;1.40;0.88;;;20.00;49.20;;;;;;5026447;28;20124;-67
2024/01/13 02:32:28;;;;;;;0.93;0.80;;;20.10;49.10;;;;;;5025857;28;20041;-67
2024/01/13 02:34:53;;;;;;;1.25;0.80;;;20.10;49.00;;;;;;5028003;28;20038;-64
2024/01/13 02:37:19;;;;;;;0.98;0.80;;;20.20;49.00;;;;;;5021332;28;20162;-68
2024/01/13 02:39:46;;;;;;;1.10;0.80;;;20.20;48.90;;;;;;5026458;28;20041;-68
2024/01/13 02:42:11;;;;;;;0.60;0.50;;;20.30;48.90;;;;;;5023988;28;20034;-68
2024/01/13 02:44:37;;;;;;;1.15;0.85;;;20.30;48.90;;;;;;5023814;28;20039;-67
2024/01/13 02:47:02;;;;;;;0.70;0.70;;;20.30;48.90;;;;;;5025019;28;20095;-68
2024/01/13 02:49:28;;;;;;;1.70;0.98;;;20.30;48.90;;;;;;5024354;28;20052;-69
2024/01/13 02:51:53;;;;;;;1.38;0.93;;;20.20;49.00;;;;;;5013216;28;20041;-65
2024/01/13 02:54:19;;;;;;;1.15;0.70;;;20.20;49.10;;;;;;5007388;28;20033;-67
2024/01/13 02:56:44;;;;;;;1.45;0.93;;;20.20;49.20;;;;;;5012975;28;20037;-67
2024/01/13 02:59:10;;;;;;;0.70;0.60;;;20.10;49.20;;;;;;5023574;28;20492;-68
2024/01/13 03:01:36;;;;;;;0.88;0.75;;;20.10;49.40;;;;;;5024146;28;20057;-67
2024/01/13 03:04:02;;;;;;;0.70;0.70;;;20.10;49.40;;;;;;5024884;28;20451;-66
2024/01/13 03:06:28;;;;;;;0.70;0.70;;;20.00;49.50;;;;;;5007256;28;20037;-68
2024/01/13 03:08:54;;;;;;;0.60;0.60;;;20.00;49.70;;;;;;5014794;28;20046;-67
2024/01/13 03:11:20;;;;;;;0.90;0.90;;;19.90;49.80;;;;;;5019208;28;20538;-68
2024/01/13 03:13:45;;;;;;;0.98;0.80;;;19.80;49.80;;;;;;5023907;28;20049;-67
2024/01/13 03:16:11;;;;;;;1.25;0.90;;;19.80;49.90;;;;;;5024105;28;20025;-67
2024/01/13 03:18:36;;;;;;;0.70;0.60;;;19.70;50.00;;;;;;5023683;28;20032;-66
2024/01/13 03:21:04;;;;;;;0.82;0.65;;;19.70;50.10;;;;;;5026645;28;20151;-66
2024/01/13 03:23:29;;;;;;;1.30;1.00;;;19.60;50.20;;;;;;5025249;28;20025;-67
2024/01/13 03:25:55;;;;;;;1.40;0.65;;;19.60;50.30;;;;;;5022987;28;20099;-68
2024/01/13 03:28:22;;;;;;;1.52;0.85;;;19.50;50.40;;;;;;5019315;28;20033;-68
2024/01/13 03:30:47;;;;;;;1.02;0.70;;;19.50;50.50;;;;;;5022845;28;20415;-67
2024/01/13 03:33:14;;;;;;;1.80;0.77;;;19.40;50.60;;;;;;5019680;28;20037;-68
2024/01/13 03:35:39;;;;;;;0.73;0.63;;;19.40;50.70;;;;;;5021160;28;20050;-67
2024/01/13 03:38:05;;;;;;;0.95;0.77;;;19.30;50.70;;;;;;5024431;28;20033;-69
2024/01/13 03:40:30;;;;;;;1.67;1.00;;;19.30;50.80;;;;;;5023351;28;20025;-67
2024/01/13 03:42:56;;;;;;;0.90;0.70;;;19.20;50.90;;;;;;5021811;28;20057;-67
2024/01/13 03:45:21;;;;;;;1.15;0.80;;;19.20;51.00;;;;;;5023854;28;20396;-69
2024/01/13 03:47:46;;;;;;;1.10;0.77;;;19.20;51.10;;;;;;5026241;28;20364;-68
2024/01/13 03:50:12;;;;;;;0.70;0.60;;;19.10;51.10;;;;;;5021925;28;20088;-68
2024/01/13 03:52:38;;;;;;;0.75;0.75;;;19.10;51.20;;;;;;5025457;28;20049;-69
2024/01/13 03:55:03;;;;;;;0.80;0.60;;;19.00;51.30;;;;;;5022862;28;20033;-69
2024/01/13 03:57:29;;;;;;;0.60;0.60;;;19.00;51.30;;;;;;5023406;28;20112;-67
2024/01/13 03:59:54;;;;;;;0.70;0.70;;;19.00;51.40;;;;;;5025707;28;20064;-68
2024/01/13 04:02:20;;;;;;;0.60;0.60;;;19.00;51.50;;;;;;5022087;28;20034;-67
2024/01/13 04:04:45;;;;;;;0.88;0.80;;;18.90;51.40;;;;;;5024256;28;20037;-70
2024/01/13 04:07:11;;;;;;;0.77;0.70;;;18.90;51.50;;;;;;5006289;28;20041;-67
2024/01/13 04:09:39;;;;;;;0.70;0.60;;;18.90;51.50;;;;;;5023079;28;20499;-68
2024/01/13 04:12:05;;;;;;;0.65;0.60;;;18.90;51.60;;;;;;5024222;28;20045;-67
2024/01/13 04:14:31;;;;;;;0.60;0.50;;;18.80;51.60;;;;;;5019843;28;20041;-67
2024/01/13 04:16:56;;;;;;;0.70;0.60;;;18.80;51.60;;;;;;5023217;28;20030;-65
2024/01/13 04:19:22;;;;;;;0.80;0.55;;;18.80;51.60;;;;;;5015816;28;20408;-68
2024/01/13 04:21:47;;;;;;;0.82;0.60;;;18.80;51.70;;;;;;5013902;28;20037;-67
2024/01/13 04:24:13;;;;;;;0.77;0.68;;;18.80;51.80;;;;;;5024700;28;20029;-68
2024/01/13 04:26:39;;;;;;;0.88;0.60;;;18.70;51.70;;;;;;5026842;28;20025;-67
2024/01/13 04:29:05;;;;;;;0.73;0.60;;;18.70;51.80;;;;;;5026669;28;20496;-68
2024/01/13 04:31:30;;;;;;;0.60;0.60;;;18.70;51.80;;;;;;5023683;28;20067;-69
2024/01/13 04:33:55;;;;;;;1.15;0.82;;;18.70;51.80;;;;;;5026574;28;20586;-61
2024/01/13 04:36:21;;;;;;;1.55;0.70;;;18.70;51.80;;;;;;5025605;28;20032;-68
2024/01/13 04:38:47;;;;;;;1.15;0.68;;;18.70;51.80;;;;;;5023038;28;20037;-69
2024/01/13 04:41:12;;;;;;;0.60;0.60;;;18.70;51.90;;;;;;5024348;28;20037;-68
2024/01/13 04:43:38;;;;;;;1.90;0.60;;;18.70;51.80;;;;;;5019369;28;20045;-66
2024/01/13 04:46:07;;;;;;;0.65;0.57;;;18.70;51.80;;;;;;5024276;28;20029;-69
2024/01/13 04:48:33;;;;;;;0.60;0.50;;;18.70;51.80;;;;;;5014716;28;20046;-69
2024/01/13 04:50:59;;;;;;;0.80;0.65;;;18.70;51.80;;;;;;5025328;28;20055;-63
2024/01/13 04:53:24;;;;;;;0.85;0.55;;;18.70;51.60;;;;;;5018469;28;20207;-67
2024/01/13 04:55:50;;;;;;;0.60;0.57;;;18.70;51.50;;;;;;5023041;28;20519;-67
2024/01/13 04:58:16;;;;;;;0.80;0.70;;;18.80;51.40;;;;;;5023531;28;20087;-68
2024/01/13 05:00:41;;;;;;;1.42;0.80;;;18.80;51.20;;;;;;5021544;28;20037;-69
2024/01/13 05:03:08;;;;;;;0.50;0.50;;;18.90;51.20;;;;;;5024361;28;20037;-68
2024/01/13 05:05:34;;;;;;;2.28;0.40;;;18.90;51.10;;;;;;5022984;28;20194;-68
2024/01/13 05:07:59;;;;;;;0.57;0.52;;;19.00;51.00;;;;;;5023247;28;20105;-69
2024/01/13 05:10:25;;;;;;;1.13;0.60;;;19.00;50.90;;;;;;5022924;28;20050;-70
2024/01/13 05:12:51;;;;;;;0.60;0.60;;;19.00;50.80;;;;;;5023783;28;20036;-68
2024/01/13 05:15:16;;;;;;;0.77;0.50;;;19.10;50.70;;;;;;5023932;28;20499;-68
2024/01/13 05:17:42;;;;;;;0.70;0.45;;;19.10;50.60;;;;;;5022807;28;20029;-68
2024/01/13 05:20:08;;;;;;;0.70;0.63;;;19.20;50.60;;;;;;5023716;28;20032;-70
2024/01/13 05:22:33;;;;;;;1.10;0.57;;;19.20;50.50;;;;;;5012738;28;20034;-68
2024/01/13 05:24:58;;;;;;;0.40;0.40;;;19.20;50.40;;;;;;5023274;28;20120;-69
2024/01/13 05:27:24;;;;;;;0.60;0.60;;;19.20;50.40;;;;;;5027003;28;20028;-70
2024/01/13 05:29:49;;;;;;;0.60;0.50;;;19.20;50.30;;;;;;5024265;28;20524;-71
2024/01/13 05:32:15;;;;;;;0.88;0.50;;;19.30;50.30;;;;;;5006913;28;20040;-70
2024/01/13 05:34:41;;;;;;;0.40;0.40;;;19.30;50.30;;;;;;5022997;28;20416;-71
2024/01/13 05:37:07;;;;;;;0.60;0.50;;;19.30;50.20;;;;;;5024193;28;20037;-69
2024/01/13 05:39:32;;;;;;;0.85;0.43;;;19.30;50.20;;;;;;5022913;28;20087;-70
2024/01/13 05:42:01;;;;;;;0.70;0.50;;;19.40;50.30;;;;;;5024689;28;20040;-71
2024/01/13 05:44:26;;;;;;;0.77;0.35;;;19.40;50.20;;;;;;5023155;28;20021;-70
2024/01/13 05:46:52;;;;;;;0.57;0.57;;;19.40;50.20;;;;;;5024357;28;20033;-70
2024/01/13 05:49:17;;;;;;;0.50;0.50;;;19.40;50.20;;;;;;5024686;28;20072;-70
2024/01/13 05:51:43;;;;;;;0.57;0.57;;;19.40;50.30;;;;;;5023982;28;20036;-70
2024/01/13 05:54:09;;;;;;;0.63;0.40;;;19.40;50.10;;;;;;5024523;28;20059;-68
2024/01/13 05:56:35;;;;;;;0.90;0.52;;;19.40;50.20;;;;;;5023203;28;20053;-70
2024/01/13 05:59:01;;;;;;;2.58;0.50;;;19.40;50.10;;;;;;5024016;28;20060;-69
2024/01/13 06:01:26;;;;;;;0.30;0.30;;;19.40;50.10;;;;;;5022921;28;20033;-69
2024/01/13 06:03:52;;;;;;;0.80;0.30;;;19.50;50.10;;;;;;5024599;28;20037;-69
2024/01/13 06:06:18;;;;;;;1.13;0.60;;;19.40;50.10;;;;;;5024068;28;20143;-71
2024/01/13 06:08:44;;;;;;;0.57;0.40;;;19.50;50.20;;;;;;5023202;28;20652;-70
2024/01/13 06:11:10;;;;;;;0.40;0.40;;;19.50;50.10;;;;;;5009571;28;20037;-70
2024/01/13 06:13:35;;;;;;;0.70;0.50;;;19.50;50.10;;;;;;5023685;28;20121;-70
2024/01/13 06:16:01;;;;;;;0.40;0.40;;;19.50;50.10;;;;;;5023977;28;20042;-69
2024/01/13 06:18:26;;;;;;;0.40;0.40;;;19.50;50.10;;;;;;5022938;28;20041;-67
2024/01/13 06:20:53;;;;;;;0.52;0.50;;;19.50;50.20;;;;;;5023580;28;20021;-70
2024/01/13 06:23:19;;;;;;;0.40;0.40;;;19.50;50.20;;;;;;5024056;28;20117;-71
2024/01/13 06:25:44;;;;;;;1.40;0.30;;;19.50;50.20;;;;;;5010969;28;20276;-66
2024/01/13 06:28:10;;;;;;;0.70;0.47;;;19.50;50.20;;;;;;5021467;28;20026;-69
2024/01/13 06:30:35;;;;;;;1.70;0.30;;;19.50;50.20;;;;;;5020967;28;20033;-69
2024/01/13 06:33:02;;;;;;;0.32;0.32;;;19.50;50.20;;;;;;5022438;28;20025;-69
2024/01/13 06:35:27;;;;;;;1.33;0.40;;;19.50;50.20;;;;;;5021412;28;20025;-68
2024/01/13 06:37:53;;;;;;;0.43;0.32;;;19.50;50.20;;;;;;5026913;28;20030;-69
2024/01/13 06:40:18;;;;;;;0.68;0.68;;;19.50;50.20;;;;;;5026327;28;20022;-69
2024/01/13 06:42:44;;;;;;;0.52;0.47;;;19.50;50.20;;;;;;5024609;28;20524;-69
2024/01/13 06:45:09;;;;;;;0.40;0.40;;;19.50;50.20;;;;;;5011514;28;20072;-68
2024/01/13 06:47:35;;;;;;;0.60;0.40;;;19.50;50.20;;;;;;5025722;28;20025;-69
2024/01/13 06:50:00;;;;;;;0.63;0.40;;;19.50;50.20;;;;;;5025185;28;20556;-69
2024/01/13 06:52:26;;;;;;;1.27;0.40;;;19.50;50.20;;;;;;5024412;28;20029;-69
2024/01/13 06:54:52;;;;;;;0.95;0.43;;;19.50;50.20;;;;;;5025861;28;20386;-69
2024/01/13 06:57:17;;;;;;;0.63;0.50;;;19.50;50.20;;;;;;5026841;28;20049;-69
2024/01/13 06:59:46;;;;;;;0.70;0.45;;;19.50;50.20;;;;;;5024970;28;20066;-68
2024/01/13 07:02:12;;;;;;;0.93;0.52;;;19.50;50.20;;;;;;5027371;28;22954;-70
2024/01/13 07:04:38;;;;;;;0.40;0.40;;;19.50;50.20;;;;;;5026904;28;20084;-69
2024/01/13 07:07:05;;;;;;;1.42;0.40;;;19.40;50.20;;;;;;5024549;28;20034;-69
2024/01/13 07:09:31;;;;;;;0.40;0.40;;;19.50;50.30;;;;;;5024713;28;20034;-69
2024/01/13 07:11:56;;;;;;;0.60;0.40;;;19.40;50.20;;;;;;5026402;28;20132;-68
2024/01/13 07:14:22;;;;;;;0.30;0.30;;;19.40;50.20;;;;;;5025018;28;20053;-69
2024/01/13 07:16:47;;;;;;;0.47;0.47;;;19.40;50.30;;;;;;5027531;28;20557;-69
2024/01/13 07:19:13;;;;;;;0.60;0.30;;;19.40;50.30;;;;;;5026668;28;20034;-68
2024/01/13 07:21:38;;;;;;;0.40;0.30;;;19.40;50.30;;;;;;5009548;28;20408;-68
2024/01/13 07:24:05;;;;;;;0.25;0.25;;;19.40;50.40;;;;;;5027083;28;20484;-69
2024/01/13 07:26:31;;;;;;;0.30;0.30;;;19.40;50.40;;;;;;5020638;28;20088;-69
2024/01/13 07:28:56;;;;;;;0.63;0.38;;;19.40;50.40;;;;;;5024934;28;20041;-68
2024/01/13 07:31:22;;;;;;;0.40;0.30;;;19.40;50.40;;;;;;5025272;28;20060;-69
2024/01/13 07:33:47;;;;;;;0.50;0.40;;;19.40;50.40;;;;;;5021745;28;20041;-69
2024/01/13 07:36:13;;;;;;;0.30;0.30;;;19.40;50.40;;;;;;5023073;28;20041;-69
2024/01/13 07:38:39;;;;;;;0.70;0.40;;;19.40;50.40;;;;;;5020596;28;20392;-70
2024/01/13 07:41:06;;;;;;;0.70;0.40;;;19.40;50.40;;;;;;5032195;28;20119;-70
2024/01/13 07:43:32;;;;;;;0.75;0.32;;;19.40;50.40;;;;;;5005607;28;20034;-69
2024/01/13 07:45:58;;;;;;;0.57;0.40;;;19.40;50.40;;;;;;5025292;28;20033;-68
2024/01/13 07:48:24;;;;;;;0.60;0.30;;;19.30;50.40;;;;;;5023600;28;20076;-69
2024/01/13 07:50:49;;;;;;;0.45;0.30;;;19.30;50.40;;;;;;5023924;28;20076;-69
2024/01/13 07:53:15;;;;;;;0.22;0.20;;;19.40;50.40;;;;;;5027511;28;20033;-69
2024/01/13 07:55:41;;;;;;;0.40;0.30;;;19.30;50.40;;;;;;5023291;28;20215;-70
2024/01/13 07:58:06;;;;;;;0.25;0.25;;;19.30;50.40;;;;;;5026140;28;20037;-69
2024/01/13 08:00:32;;;;;;;0.30;0.30;;;19.30;50.40;;;;;;5010828;28;20025;-69
2024/01/13 08:02:57;;;;;;;1.50;0.20;;;19.30;50.40;;;;;;5024901;28;20022;-66
2024/01/13 08:05:23;;;;;;;1.20;0.30;;;19.30;50.40;;;;;;5024462;28;20032;-70
2024/01/13 08:07:48;;;;;;;0.45;0.40;;;19.30;50.40;;;;;;5026001;28;20428;-70
2024/01/13 08:10:14;;;;;;;0.63;0.40;;;19.30;50.40;;;;;;5009082;28;20030;-66
2024/01/13 08:12:39;;;;;;;0.40;0.40;;;19.30;50.50;;;;;;5023837;28;20029;-64
2024/01/13 08:15:05;;;;;;;1.15;0.30;;;19.30;50.50;;;;;;5024657;28;20084;-69
2024/01/13 08:17:31;;;;;;;0.40;0.30;;;19.30;50.50;;;;;;5022875;28;20057;-68
2024/01/13 08:19:57;;;;;;;0.30;0.30;;;19.30;50.50;;;;;;5023791;28;20076;-69
2024/01/13 08:22:22;;;;;;;0.30;0.30;;;19.30;50.50;;;;;;5011459;28;20109;-66
2024/01/13 08:24:48;;;;;;;0.50;0.50;;;19.20;50.50;;;;;;5024232;28;20384;-68
2024/01/13 08:27:13;;;;;;;0.22;0.22;;;19.20;50.60;;;;;;5020253;28;20534;-68
2024/01/13 08:29:39;;;;;;;0.65;0.30;;;19.20;50.60;;;;;;5021219;28;20134;-64
2024/01/13 08:32:05;;;;;;;0.22;0.22;;;19.20;50.70;;;;;;5023555;28;20048;-68
2024/01/13 08:34:30;;;;;;;0.55;0.50;;;19.20;50.70;;;;;;5021785;28;20115;-64
2024/01/13 08:36:56;;;;;;;0.60;0.35;;;19.20;50.70;;;;;;5023678;28;20060;-66
2024/01/13 08:39:22;;;;;;;0.57;0.35;;;19.20;50.80;;;;;;5022749;28;20449;-64
2024/01/13 08:41:47;;;;;;;0.73;0.40;;;19.10;50.80;;;;;;5021979;28;20033;-67
2024/01/13 08:44:13;;;;;;;0.30;0.30;;;19.10;50.80;;;;;;5012433;28;20030;-68
2024/01/13 08:46:38;;;;;;;1.10;0.30;;;19.10;50.90;;;;;;5021945;28;20116;-63
2024/01/13 08:49:04;;;;;;;0.68;0.40;;;19.10;50.90;;;;;;5023278;28;20036;-68
2024/01/13 08:51:30;;;;;;;0.50;0.40;;;19.10;50.90;;;;;;5022739;28;20037;-65
2024/01/13 08:53:55;;;;;;;0.50;0.45;;;19.10;50.90;;;;;;5020771;28;20034;-60
2024/01/13 08:56:21;;;;;;;4.97;0.90;;;19.00;51.00;;;;;;5023992;28;20030;-68
2024/01/13 08:58:46;;;;;;;0.93;0.52;;;19.00;51.10;;;;;;5022453;28;20087;-64
2024/01/13 09:01:12;;;;;;;0.47;0.43;;;18.90;51.20;;;;;;5025366;28;20480;-69
2024/01/13 09:03:40;;;;;;;0.95;0.60;;;18.90;51.40;;;;;;5023141;28;20057;-68
2024/01/13 09:06:06;;;;;;;0.93;0.60;;;18.80;51.40;;;;;;5024262;28;20051;-65
2024/01/13 09:08:31;;;;;;;1.20;0.80;;;18.80;51.60;;;;;;5021906;28;20124;-67
2024/01/13 09:10:56;;;;;;;1.05;0.57;;;18.70;51.60;;;;;;5024615;28;20064;-65
2024/01/13 09:13:22;;;;;;;0.70;0.50;;;18.70;51.70;;;;;;5030587;28;20519;-69
2024/01/13 09:15:47;;;;;;;1.95;0.80;;;18.60;51.80;;;;;;5022340;28;20045;-70
2024/01/13 09:18:13;;;;;;;0.77;0.60;;;18.60;51.90;;;;;;5024727;28;20029;-70
2024/01/13 09:20:39;;;;;;;0.95;0.57;;;18.60;52.00;;;;;;5022149;28;20032;-69
2024/01/13 09:23:04;;;;;;;0.85;0.70;;;18.50;52.00;;;;;;5024525;28;20049;-70
2024/01/13 09:25:30;;;;;;;1.60;0.70;;;18.50;52.00;;;;;;5023210;28;20030;-70
2024/01/13 09:27:56;;;;;;;1.38;0.80;;;18.50;52.00;;;;;;5024138;28;20029;-70
2024/01/13 09:30:22;;;;;;;0.75;0.70;;;18.50;52.10;;;;;;5022153;28;20051;-70
2024/01/13 09:32:48;;;;;;;1.15;0.70;;;18.50;52.10;;;;;;5022056;28;20072;-69
2024/01/13 09:35:13;;;;;;;1.13;0.82;;;18.50;52.20;;;;;;5022204;28;20041;-70
2024/01/13 09:37:39;;;;;;;1.48;0.80;;;18.50;52.10;;;;;;5021679;28;20033;-70
2024/01/13 09:40:05;;;;;;;0.70;0.63;;;18.40;52.10;;;;;;5011217;28;20524;-69
2024/01/13 09:42:43;;;;;;;1.40;0.85;;;18.50;52.10;;;;;;5023469;28;20033;-69
2024/01/13 09:45:10;;;;;;;0.80;0.70;;;18.50;52.10;;;;;;5018270;28;20040;-69
2024/01/13 09:47:36;;;;;;;0.80;0.70;;;18.50;52.00;;;;;;5021414;28;20129;-67
2024/01/13 09:50:04;;;;;;;1.30;1.00;;;18.60;52.00;;;;;;5021739;28;20128;-68
2024/01/13 09:52:30;;;;;;;0.88;0.73;;;18.60;51.60;;;;;;5007447;28;20033;-69
2024/01/13 09:55:00;;;;;;;0.95;0.77;;;18.60;51.40;;;;;;5018604;28;20041;-69
2024/01/13 09:57:26;;;;;;;0.93;0.70;;;18.70;51.30;;;;;;5019814;28;20030;-68
2024/01/13 09:59:52;;;;;;;1.63;1.13;;;18.80;51.10;;;;;;5020497;28;20037;-67
2024/01/13 10:02:18;;;;;;;2.70;1.15;;;18.90;50.90;;;;;;5022668;28;20087;-68
2024/01/13 10:04:44;;;;;;;3.10;1.00;;;19.00;50.80;;;;;;5024297;28;20072;-68
2024/01/13 10:07:10;;;;;;;1.83;1.17;;;19.00;50.60;;;;;;5024365;28;20554;-68
2024/01/13 10:09:39;;;;;;;2.97;1.38;;;19.10;50.50;;;;;;5023975;28;20041;-66
2024/01/13 10:12:06;;;;;;;1.88;1.13;;;19.20;50.30;;;;;;5028346;28;20076;-68
2024/01/13 10:14:35;;;;;;;2.42;1.30;;;19.40;50.20;;;;;;5024919;28;20037;-68
2024/01/13 10:17:05;;;;;;;1.50;1.08;;;19.50;50.00;;;;;;5025588;28;20432;-68
2024/01/13 10:19:35;;;;;;;3.45;1.30;;;19.60;49.80;;;;;;5022655;28;20030;-64
2024/01/13 10:22:02;;;;;;;2.90;1.40;;;19.70;49.60;;;;;;5024959;28;20493;-66
2024/01/13 10:24:28;;;;;;;3.30;1.67;;;19.80;49.60;;;;;;5024541;28;20052;-69
2024/01/13 10:26:54;;;;;;;1.92;1.40;;;19.90;49.40;;;;;;5009147;28;20029;-70
2024/01/13 10:29:20;;;;;;;3.90;1.60;;;20.00;49.20;;;;;;5022853;28;20052;-70
2024/01/13 10:31:48;;;;;;;3.03;1.70;;;20.00;49.10;;;;;;5024036;28;20593;-70
2024/01/13 10:34:17;;;;;;;3.53;2.08;;;20.10;49.10;;;;;;5006217;28;20089;-70
2024/01/13 10:36:42;;;;;;;5.40;2.13;;;20.00;49.20;;;;;;5023906;28;20030;-70
2024/01/13 10:39:08;;;;;;;6.68;2.40;;;19.90;49.30;;;;;;5021105;28;20706;-71
2024/01/13 10:41:35;;;;;;;4.88;2.90;;;19.90;49.60;;;;;;5007337;28;20061;-70
2024/01/13 10:44:04;;;;;;;9.07;2.92;;;19.80;49.70;;;;;;5025373;28;20120;-70
2024/01/13 10:46:33;;;;;;;10.57;3.70;;;19.70;49.80;;;;;;5025828;28;20094;-70
2024/01/13 10:49:04;;;;;;;9.05;3.55;;;19.70;50.10;;;;;;5022346;28;20037;-70
2024/01/13 10:51:43;;;;;;;12.52;3.35;;;19.60;50.20;;;;;;5021812;28;20029;-70
2024/01/13 10:54:09;;;;;;;10.57;4.05;;;19.50;50.30;;;;;;5023557;28;20768;-69
2024/01/13 10:56:36;;;;;;;10.32;4.40;;;19.40;50.40;;;;;;5023567;28;20057;-69
2024/01/13 10:59:02;;;;;;;9.50;3.90;;;19.40;50.60;;;;;;5024276;28;20125;-69
2024/01/13 11:01:27;;;;;;;8.77;3.42;;;19.30;50.80;;;;;;5023368;28;20316;-66
2024/01/13 11:03:54;;;;;;;14.07;4.32;;;19.20;50.90;;;;;;5020241;28;20034;-66
2024/01/13 11:06:21;;;;;;;13.32;4.32;;;19.20;51.00;;;;;;5024902;28;20492;-68
2024/01/13 11:08:47;;;;;;;10.88;4.57;;;19.10;51.10;;;;;;5024259;28;20167;-70
2024/01/13 11:11:18;;;;;;;14.55;4.25;;;19.10;51.20;;;;;;5005759;28;20064;-67
2024/01/13 11:13:52;;;;;;;13.38;4.65;;;19.10;51.20;;;;;;5012618;28;20136;-69
2024/01/13 11:16:25;;;;;;;11.70;4.57;;;19.10;51.30;;;;;;5016381;28;20025;-69
2024/01/13 11:18:52;;;;;;;12.70;4.32;;;19.10;51.20;;;;;;5019464;28;20057;-70
2024/01/13 11:21:19;;;;;;;14.13;3.92;;;19.10;51.20;;;;;;5023958;28;20431;-69
2024/01/13 11:23:46;;;;;;;13.25;4.10;;;19.10;51.20;;;;;;5006159;28;20137;-70
2024/01/13 11:26:14;;;;;;;12.63;4.65;;;19.10;51.20;;;;;;5019672;28;20535;-69
2024/01/13 11:28:47;;;;;;;12.45;4.18;;;19.10;51.20;;;;;;5022275;28;20544;-70
2024/01/13 11:31:39;;;;;;;11.27;4.63;;;19.20;51.30;;;;;;5021537;28;20536;-70
2024/01/13 11:34:09;;;;;;;15.23;4.55;;;19.20;51.20;;;;;;5004563;28;20496;-68
2024/01/13 11:36:39;;;;;;;11.95;4.63;;;19.20;51.20;;;;;;5025048;28;20029;-69
2024/01/13 11:39:06;;;;;;;13.10;5.45;;;19.20;51.00;;;;;;5017974;28;20030;-68
2024/01/13 11:41:51;;;;;;;13.07;4.43;;;19.20;51.00;;;;;;5021496;28;20108;-69
2024/01/13 11:44:22;;;;;;;14.77;5.50;;;19.30;51.00;;;;;;5019214;28;20026;-69
2024/01/13 11:47:06;;;;;;;11.75;4.57;;;19.30;50.90;;;;;;5023415;28;20033;-69
2024/01/13 11:49:33;;;;;;;11.35;4.80;;;19.30;50.90;;;;;;5021690;28;20091;-69
2024/01/13 11:52:04;;;;;;;12.50;4.05;;;19.30;50.90;;;;;;5021708;28;20041;-69
2024/01/13 11:54:30;;;;;;;12.55;4.38;;;19.30;50.90;;;;;;5022134;28;20093;-69
2024/01/13 11:56:57;;;;;;;11.75;4.63;;;19.30;50.90;;;;;;5027207;28;20053;-69
2024/01/13 11:59:23;;;;;;;12.15;4.47;;;19.30;50.90;;;;;;5022784;28;20030;-68
2024/01/13 12:01:49;;;;;;;12.77;4.53;;;19.30;50.90;;;;;;5025144;28;20087;-70
2024/01/13 12:04:16;;;;;;;12.52;4.03;;;19.30;50.80;;;;;;5007463;28;20114;-69
2024/01/13 12:06:43;;;;;;;10.05;3.15;;;19.30;50.90;;;;;;5017563;28;20040;-70
2024/01/13 12:09:11;;;;;;;11.45;3.70;;;19.30;50.80;;;;;;5023966;28;20515;-69
2024/01/13 12:11:36;;;;;;;11.85;3.80;;;19.40;50.90;;;;;;5024422;28;20057;-68
2024/01/13 12:14:05;;;;;;;9.00;3.80;;;19.30;50.80;;;;;;5016215;28;20180;-70
2024/01/13 12:16:32;;;;;;;9.00;3.60;;;19.30;50.80;;;;;;5019868;28;20052;-68
2024/01/13 12:18:58;;;;;;;9.55;3.35;;;19.40;50.80;;;;;;5029254;28;20497;-70
2024/01/13 12:21:23;;;;;;;12.07;3.67;;;19.40;50.80;;;;;;5019391;28;20040;-69
2024/01/13 12:23:49;;;;;;;7.05;3.10;;;19.40;50.70;;;;;;5020762;28;20042;-69
2024/01/13 12:26:15;;;;;;;13.75;3.90;;;19.40;50.70;;;;;;5025128;28;20036;-70
2024/01/13 12:28:41;;;;;;;10.85;3.88;;;19.40;50.70;;;;;;5018791;28;20037;-69
2024/01/13 12:31:07;;;;;;;8.65;3.10;;;19.40;50.60;;;;;;5021497;28;20474;-69
2024/01/13 12:33:34;;;;;;;7.82;3.08;;;19.50;50.70;;;;;;5024276;28;20087;-69
2024/01/13 12:36:01;;;;;;;8.98;3.17;;;19.50;51.20;;;;;;5024501;28;20026;-68
2024/01/13 12:38:30;;;;;;;6.50;3.20;;;19.50;50.60;;;;;;5007906;28;20113;-68
2024/01/13 12:40:59;;;;;;;6.78;2.55;;;19.50;50.60;;;;;;5021547;28;20037;-68